sensor_id;sensor_type;location;lat;lon;timestamp;P1;durP1;ratioP1;P2;durP2;ratioP2
7833;SDS011;3962;42.696;23.354;2022-10-16T00:02:12;15.20;;;9.80;;
7833;SDS011;3962;42.696;23.354;2022-10-16T00:04:39;14.57;;;9.37;;
7833;SDS011;3962;42.696;23.354;2022-10-16T00:07:06;12.70;;;9.63;;
7833;SDS011;3962;42.696;23.354;2022-10-16T00:09:34;16.90;;;11.03;;
7833;SDS011;3962;42.696;23.354;2022-10-16T00:12:01;16.00;;;10.10;;
7833;SDS011;3962;42.696;23.354;2022-10-16T00:14:29;16.57;;;9.80;;
7833;SDS011;3962;42.696;23.354;2022-10-16T00:16:55;16.53;;;9.17;;
7833;SDS011;3962;42.696;23.354;2022-10-16T00:19:22;15.53;;;10.20;;
7833;SDS011;3962;42.696;23.354;2022-10-16T00:21:49;18.63;;;10.00;;
7833;SDS011;3962;42.696;23.354;2022-10-16T00:24:16;15.67;;;9.73;;
7833;SDS011;3962;42.696;23.354;2022-10-16T00:26:44;15.60;;;10.17;;
7833;SDS011;3962;42.696;23.354;2022-10-16T00:29:10;16.73;;;10.27;;
7833;SDS011;3962;42.696;23.354;2022-10-16T00:31:37;13.07;;;9.27;;
7833;SDS011;3962;42.696;23.354;2022-10-16T00:34:04;15.93;;;9.30;;
7833;SDS011;3962;42.696;23.354;2022-10-16T00:36:31;13.40;;;10.20;;
7833;SDS011;3962;42.696;23.354;2022-10-16T00:38:58;18.77;;;10.23;;
7833;SDS011;3962;42.696;23.354;2022-10-16T00:41:25;13.97;;;9.40;;
7833;SDS011;3962;42.696;23.354;2022-10-16T00:43:55;15.20;;;10.10;;
7833;SDS011;3962;42.696;23.354;2022-10-16T00:46:23;13.40;;;10.47;;
7833;SDS011;3962;42.696;23.354;2022-10-16T00:48:54;14.97;;;9.93;;
7833;SDS011;3962;42.696;23.354;2022-10-16T00:51:25;17.13;;;10.83;;
7833;SDS011;3962;42.696;23.354;2022-10-16T00:53:57;14.73;;;10.77;;
7833;SDS011;3962;42.696;23.354;2022-10-16T00:56:25;15.67;;;10.10;;
7833;SDS011;3962;42.696;23.354;2022-10-16T00:58:52;15.07;;;10.00;;
7833;SDS011;3962;42.696;23.354;2022-10-16T01:01:20;14.30;;;10.00;;
7833;SDS011;3962;42.696;23.354;2022-10-16T01:03:47;16.33;;;10.47;;
7833;SDS011;3962;42.696;23.354;2022-10-16T01:06:24;17.97;;;11.07;;
7833;SDS011;3962;42.696;23.354;2022-10-16T01:09:06;17.43;;;10.10;;
7833;SDS011;3962;42.696;23.354;2022-10-16T01:11:43;16.53;;;10.10;;
7833;SDS011;3962;42.696;23.354;2022-10-16T01:14:17;14.23;;;9.37;;
7833;SDS011;3962;42.696;23.354;2022-10-16T01:16:51;19.03;;;10.17;;
7833;SDS011;3962;42.696;23.354;2022-10-16T01:19:25;15.57;;;10.33;;
7833;SDS011;3962;42.696;23.354;2022-10-16T01:22:02;18.23;;;10.43;;
7833;SDS011;3962;42.696;23.354;2022-10-16T01:24:33;18.10;;;10.90;;
7833;SDS011;3962;42.696;23.354;2022-10-16T01:27:10;16.70;;;10.13;;
7833;SDS011;3962;42.696;23.354;2022-10-16T01:29:40;13.53;;;9.60;;
7833;SDS011;3962;42.696;23.354;2022-10-16T01:32:16;14.63;;;9.73;;
7833;SDS011;3962;42.696;23.354;2022-10-16T01:34:47;15.93;;;9.97;;
7833;SDS011;3962;42.696;23.354;2022-10-16T01:37:30;15.60;;;10.47;;
7833;SDS011;3962;42.696;23.354;2022-10-16T01:40:02;16.93;;;9.87;;
7833;SDS011;3962;42.696;23.354;2022-10-16T01:42:35;15.93;;;10.27;;
7833;SDS011;3962;42.696;23.354;2022-10-16T01:45:05;18.73;;;10.30;;
7833;SDS011;3962;42.696;23.354;2022-10-16T01:47:36;18.83;;;9.80;;
7833;SDS011;3962;42.696;23.354;2022-10-16T01:50:05;14.60;;;10.27;;
7833;SDS011;3962;42.696;23.354;2022-10-16T01:52:34;12.90;;;9.43;;
7833;SDS011;3962;42.696;23.354;2022-10-16T01:55:05;15.57;;;9.67;;
7833;SDS011;3962;42.696;23.354;2022-10-16T01:57:37;13.67;;;8.93;;
7833;SDS011;3962;42.696;23.354;2022-10-16T02:00:07;15.20;;;9.30;;
7833;SDS011;3962;42.696;23.354;2022-10-16T02:02:38;16.90;;;9.60;;
7833;SDS011;3962;42.696;23.354;2022-10-16T02:05:09;15.50;;;9.77;;
7833;SDS011;3962;42.696;23.354;2022-10-16T02:07:38;14.60;;;9.27;;
7833;SDS011;3962;42.696;23.354;2022-10-16T02:10:07;12.73;;;9.37;;
7833;SDS011;3962;42.696;23.354;2022-10-16T02:12:35;14.43;;;9.70;;
7833;SDS011;3962;42.696;23.354;2022-10-16T02:15:07;14.50;;;9.43;;
7833;SDS011;3962;42.696;23.354;2022-10-16T02:17:34;17.87;;;10.33;;
7833;SDS011;3962;42.696;23.354;2022-10-16T02:20:03;18.80;;;9.47;;
7833;SDS011;3962;42.696;23.354;2022-10-16T02:22:32;13.47;;;9.97;;
7833;SDS011;3962;42.696;23.354;2022-10-16T02:25:02;19.67;;;10.70;;
7833;SDS011;3962;42.696;23.354;2022-10-16T02:27:33;16.30;;;10.43;;
7833;SDS011;3962;42.696;23.354;2022-10-16T02:30:05;16.83;;;9.63;;
7833;SDS011;3962;42.696;23.354;2022-10-16T02:32:38;13.93;;;9.50;;
7833;SDS011;3962;42.696;23.354;2022-10-16T02:35:08;15.07;;;9.30;;
7833;SDS011;3962;42.696;23.354;2022-10-16T02:37:36;26.98;;;15.77;;
7833;SDS011;3962;42.696;23.354;2022-10-16T02:40:06;18.93;;;9.53;;
7833;SDS011;3962;42.696;23.354;2022-10-16T02:42:34;14.33;;;9.03;;
7833;SDS011;3962;42.696;23.354;2022-10-16T02:45:02;14.60;;;8.90;;
7833;SDS011;3962;42.696;23.354;2022-10-16T02:47:31;12.10;;;9.00;;
7833;SDS011;3962;42.696;23.354;2022-10-16T02:49:58;14.53;;;9.40;;
7833;SDS011;3962;42.696;23.354;2022-10-16T02:52:25;14.37;;;10.03;;
7833;SDS011;3962;42.696;23.354;2022-10-16T02:54:51;15.67;;;9.20;;
7833;SDS011;3962;42.696;23.354;2022-10-16T02:57:18;12.93;;;8.43;;
7833;SDS011;3962;42.696;23.354;2022-10-16T02:59:45;13.50;;;9.03;;
7833;SDS011;3962;42.696;23.354;2022-10-16T03:02:12;12.70;;;8.53;;
7833;SDS011;3962;42.696;23.354;2022-10-16T03:04:40;15.73;;;9.23;;
7833;SDS011;3962;42.696;23.354;2022-10-16T03:07:07;20.13;;;9.93;;
7833;SDS011;3962;42.696;23.354;2022-10-16T03:09:34;16.20;;;9.43;;
7833;SDS011;3962;42.696;23.354;2022-10-16T03:12:00;17.07;;;10.40;;
7833;SDS011;3962;42.696;23.354;2022-10-16T03:14:27;15.57;;;9.73;;
7833;SDS011;3962;42.696;23.354;2022-10-16T03:16:54;14.67;;;10.07;;
7833;SDS011;3962;42.696;23.354;2022-10-16T03:19:20;13.50;;;9.57;;
7833;SDS011;3962;42.696;23.354;2022-10-16T03:21:49;12.73;;;9.57;;
7833;SDS011;3962;42.696;23.354;2022-10-16T03:24:15;18.40;;;10.23;;
7833;SDS011;3962;42.696;23.354;2022-10-16T03:26:42;13.30;;;9.67;;
7833;SDS011;3962;42.696;23.354;2022-10-16T03:29:09;13.03;;;10.07;;
7833;SDS011;3962;42.696;23.354;2022-10-16T03:31:35;16.37;;;10.27;;
7833;SDS011;3962;42.696;23.354;2022-10-16T03:34:02;17.00;;;10.63;;
7833;SDS011;3962;42.696;23.354;2022-10-16T03:36:29;14.33;;;9.70;;
7833;SDS011;3962;42.696;23.354;2022-10-16T03:38:57;15.47;;;9.70;;
7833;SDS011;3962;42.696;23.354;2022-10-16T03:41:24;22.90;;;10.30;;
7833;SDS011;3962;42.696;23.354;2022-10-16T03:43:51;15.43;;;10.27;;
7833;SDS011;3962;42.696;23.354;2022-10-16T03:46:17;13.90;;;10.43;;
7833;SDS011;3962;42.696;23.354;2022-10-16T03:48:44;14.73;;;9.83;;
7833;SDS011;3962;42.696;23.354;2022-10-16T03:51:11;12.97;;;8.63;;
7833;SDS011;3962;42.696;23.354;2022-10-16T03:53:38;15.40;;;9.57;;
7833;SDS011;3962;42.696;23.354;2022-10-16T03:56:06;12.50;;;9.70;;
7833;SDS011;3962;42.696;23.354;2022-10-16T03:58:33;12.53;;;9.23;;
7833;SDS011;3962;42.696;23.354;2022-10-16T04:01:00;13.33;;;9.57;;
7833;SDS011;3962;42.696;23.354;2022-10-16T04:03:26;14.50;;;9.90;;
7833;SDS011;3962;42.696;23.354;2022-10-16T04:05:53;13.43;;;10.27;;
7833;SDS011;3962;42.696;23.354;2022-10-16T04:08:20;14.67;;;9.53;;
7833;SDS011;3962;42.696;23.354;2022-10-16T04:10:47;17.60;;;9.67;;
7833;SDS011;3962;42.696;23.354;2022-10-16T04:13:15;16.37;;;10.13;;
7833;SDS011;3962;42.696;23.354;2022-10-16T04:15:42;14.50;;;9.67;;
7833;SDS011;3962;42.696;23.354;2022-10-16T04:18:10;13.60;;;9.37;;
7833;SDS011;3962;42.696;23.354;2022-10-16T04:20:37;13.63;;;9.47;;
7833;SDS011;3962;42.696;23.354;2022-10-16T04:23:04;14.53;;;9.80;;
7833;SDS011;3962;42.696;23.354;2022-10-16T04:25:30;13.23;;;9.57;;
7833;SDS011;3962;42.696;23.354;2022-10-16T04:27:57;16.57;;;10.53;;
7833;SDS011;3962;42.696;23.354;2022-10-16T04:30:25;22.00;;;11.53;;
7833;SDS011;3962;42.696;23.354;2022-10-16T04:32:52;19.60;;;12.37;;
7833;SDS011;3962;42.696;23.354;2022-10-16T04:35:19;24.00;;;11.53;;
7833;SDS011;3962;42.696;23.354;2022-10-16T04:37:47;15.03;;;10.37;;
7833;SDS011;3962;42.696;23.354;2022-10-16T04:40:13;20.17;;;11.57;;
7833;SDS011;3962;42.696;23.354;2022-10-16T04:42:40;14.23;;;10.90;;
7833;SDS011;3962;42.696;23.354;2022-10-16T04:45:08;16.30;;;10.27;;
7833;SDS011;3962;42.696;23.354;2022-10-16T04:47:36;17.17;;;10.97;;
7833;SDS011;3962;42.696;23.354;2022-10-16T04:50:03;13.13;;;10.63;;
7833;SDS011;3962;42.696;23.354;2022-10-16T04:52:31;16.90;;;10.13;;
7833;SDS011;3962;42.696;23.354;2022-10-16T04:54:58;16.57;;;10.97;;
7833;SDS011;3962;42.696;23.354;2022-10-16T04:57:27;18.47;;;11.53;;
7833;SDS011;3962;42.696;23.354;2022-10-16T04:59:54;19.37;;;11.43;;
7833;SDS011;3962;42.696;23.354;2022-10-16T05:02:21;19.83;;;11.50;;
7833;SDS011;3962;42.696;23.354;2022-10-16T05:04:49;18.70;;;11.33;;
7833;SDS011;3962;42.696;23.354;2022-10-16T05:07:15;17.33;;;11.10;;
7833;SDS011;3962;42.696;23.354;2022-10-16T05:09:42;23.07;;;12.10;;
7833;SDS011;3962;42.696;23.354;2022-10-16T05:12:09;25.17;;;12.23;;
7833;SDS011;3962;42.696;23.354;2022-10-16T05:14:36;20.03;;;10.37;;
7833;SDS011;3962;42.696;23.354;2022-10-16T05:17:02;19.10;;;10.03;;
7833;SDS011;3962;42.696;23.354;2022-10-16T05:19:29;16.30;;;9.97;;
7833;SDS011;3962;42.696;23.354;2022-10-16T05:21:58;17.77;;;10.30;;
7833;SDS011;3962;42.696;23.354;2022-10-16T05:24:24;17.33;;;11.17;;
7833;SDS011;3962;42.696;23.354;2022-10-16T05:26:51;27.73;;;16.90;;
7833;SDS011;3962;42.696;23.354;2022-10-16T05:29:18;18.33;;;11.60;;
7833;SDS011;3962;42.696;23.354;2022-10-16T05:31:45;14.37;;;10.10;;
7833;SDS011;3962;42.696;23.354;2022-10-16T05:34:12;17.57;;;10.07;;
7833;SDS011;3962;42.696;23.354;2022-10-16T05:36:39;14.97;;;9.70;;
7833;SDS011;3962;42.696;23.354;2022-10-16T05:39:07;18.93;;;10.43;;
7833;SDS011;3962;42.696;23.354;2022-10-16T05:41:34;21.07;;;10.73;;
7833;SDS011;3962;42.696;23.354;2022-10-16T05:44:03;15.80;;;11.07;;
7833;SDS011;3962;42.696;23.354;2022-10-16T05:46:30;15.27;;;9.57;;
7833;SDS011;3962;42.696;23.354;2022-10-16T05:48:57;14.63;;;10.27;;
7833;SDS011;3962;42.696;23.354;2022-10-16T05:51:24;13.10;;;8.57;;
7833;SDS011;3962;42.696;23.354;2022-10-16T05:53:51;15.60;;;9.97;;
7833;SDS011;3962;42.696;23.354;2022-10-16T05:56:20;15.53;;;9.70;;
7833;SDS011;3962;42.696;23.354;2022-10-16T05:58:46;16.87;;;9.63;;
7833;SDS011;3962;42.696;23.354;2022-10-16T06:01:14;16.53;;;10.60;;
7833;SDS011;3962;42.696;23.354;2022-10-16T06:03:42;16.87;;;10.53;;
7833;SDS011;3962;42.696;23.354;2022-10-16T06:06:10;16.40;;;10.73;;
7833;SDS011;3962;42.696;23.354;2022-10-16T06:08:38;20.33;;;12.20;;
7833;SDS011;3962;42.696;23.354;2022-10-16T06:11:06;20.83;;;12.50;;
7833;SDS011;3962;42.696;23.354;2022-10-16T06:13:35;24.23;;;14.03;;
7833;SDS011;3962;42.696;23.354;2022-10-16T06:16:02;25.57;;;13.40;;
7833;SDS011;3962;42.696;23.354;2022-10-16T06:18:29;22.03;;;13.47;;
7833;SDS011;3962;42.696;23.354;2022-10-16T06:20:57;23.93;;;14.40;;
7833;SDS011;3962;42.696;23.354;2022-10-16T06:23:24;26.70;;;14.87;;
7833;SDS011;3962;42.696;23.354;2022-10-16T06:25:51;28.47;;;15.13;;
7833;SDS011;3962;42.696;23.354;2022-10-16T06:28:18;23.30;;;13.30;;
7833;SDS011;3962;42.696;23.354;2022-10-16T06:30:46;48.27;;;15.00;;
7833;SDS011;3962;42.696;23.354;2022-10-16T06:33:13;23.90;;;17.73;;
7833;SDS011;3962;42.696;23.354;2022-10-16T06:35:40;22.03;;;13.37;;
7833;SDS011;3962;42.696;23.354;2022-10-16T06:38:06;20.80;;;12.17;;
7833;SDS011;3962;42.696;23.354;2022-10-16T06:40:33;18.53;;;12.60;;
7833;SDS011;3962;42.696;23.354;2022-10-16T06:43:00;20.43;;;11.23;;
7833;SDS011;3962;42.696;23.354;2022-10-16T06:45:26;21.80;;;11.20;;
7833;SDS011;3962;42.696;23.354;2022-10-16T06:47:54;15.90;;;11.80;;
7833;SDS011;3962;42.696;23.354;2022-10-16T06:50:21;16.63;;;11.80;;
7833;SDS011;3962;42.696;23.354;2022-10-16T06:52:48;14.63;;;10.93;;
7833;SDS011;3962;42.696;23.354;2022-10-16T06:55:15;16.90;;;11.43;;
7833;SDS011;3962;42.696;23.354;2022-10-16T06:57:42;19.37;;;12.33;;
7833;SDS011;3962;42.696;23.354;2022-10-16T07:00:09;37.63;;;24.00;;
7833;SDS011;3962;42.696;23.354;2022-10-16T07:02:36;14.87;;;10.70;;
7833;SDS011;3962;42.696;23.354;2022-10-16T07:05:05;21.47;;;11.63;;
7833;SDS011;3962;42.696;23.354;2022-10-16T07:07:32;19.50;;;12.60;;
7833;SDS011;3962;42.696;23.354;2022-10-16T07:09:59;17.83;;;11.73;;
7833;SDS011;3962;42.696;23.354;2022-10-16T07:12:26;19.80;;;13.70;;
7833;SDS011;3962;42.696;23.354;2022-10-16T07:14:53;19.20;;;11.87;;
7833;SDS011;3962;42.696;23.354;2022-10-16T07:17:20;29.27;;;16.63;;
7833;SDS011;3962;42.696;23.354;2022-10-16T07:19:47;17.00;;;11.80;;
7833;SDS011;3962;42.696;23.354;2022-10-16T07:22:15;19.67;;;13.43;;
7833;SDS011;3962;42.696;23.354;2022-10-16T07:24:44;19.70;;;14.60;;
7833;SDS011;3962;42.696;23.354;2022-10-16T07:27:11;22.87;;;15.07;;
7833;SDS011;3962;42.696;23.354;2022-10-16T07:29:38;17.70;;;11.53;;
7833;SDS011;3962;42.696;23.354;2022-10-16T07:32:05;17.57;;;12.20;;
7833;SDS011;3962;42.696;23.354;2022-10-16T07:34:32;20.63;;;12.17;;
7833;SDS011;3962;42.696;23.354;2022-10-16T07:36:58;18.80;;;11.07;;
7833;SDS011;3962;42.696;23.354;2022-10-16T07:39:27;15.40;;;10.00;;
7833;SDS011;3962;42.696;23.354;2022-10-16T07:41:53;16.27;;;10.70;;
7833;SDS011;3962;42.696;23.354;2022-10-16T07:44:20;14.20;;;9.93;;
7833;SDS011;3962;42.696;23.354;2022-10-16T07:46:47;14.50;;;9.67;;
7833;SDS011;3962;42.696;23.354;2022-10-16T07:49:14;16.00;;;10.47;;
7833;SDS011;3962;42.696;23.354;2022-10-16T07:51:41;13.33;;;9.80;;
7833;SDS011;3962;42.696;23.354;2022-10-16T07:54:08;15.57;;;9.90;;
7833;SDS011;3962;42.696;23.354;2022-10-16T07:56:36;12.30;;;8.03;;
7833;SDS011;3962;42.696;23.354;2022-10-16T07:59:03;12.27;;;8.37;;
7833;SDS011;3962;42.696;23.354;2022-10-16T08:01:29;12.37;;;8.10;;
7833;SDS011;3962;42.696;23.354;2022-10-16T08:03:56;10.60;;;8.00;;
7833;SDS011;3962;42.696;23.354;2022-10-16T08:06:24;11.10;;;7.37;;
7833;SDS011;3962;42.696;23.354;2022-10-16T08:08:51;9.70;;;7.40;;
7833;SDS011;3962;42.696;23.354;2022-10-16T08:11:18;11.27;;;7.10;;
7833;SDS011;3962;42.696;23.354;2022-10-16T08:13:46;12.73;;;7.70;;
7833;SDS011;3962;42.696;23.354;2022-10-16T08:16:13;12.23;;;7.20;;
7833;SDS011;3962;42.696;23.354;2022-10-16T08:18:40;14.93;;;8.13;;
7833;SDS011;3962;42.696;23.354;2022-10-16T08:21:08;13.97;;;7.33;;
7833;SDS011;3962;42.696;23.354;2022-10-16T08:23:39;10.43;;;7.47;;
7833;SDS011;3962;42.696;23.354;2022-10-16T08:26:06;13.47;;;8.73;;
7833;SDS011;3962;42.696;23.354;2022-10-16T08:28:34;12.53;;;8.03;;
7833;SDS011;3962;42.696;23.354;2022-10-16T08:31:06;10.10;;;7.23;;
7833;SDS011;3962;42.696;23.354;2022-10-16T08:33:35;10.43;;;7.03;;
7833;SDS011;3962;42.696;23.354;2022-10-16T08:36:02;9.93;;;7.40;;
7833;SDS011;3962;42.696;23.354;2022-10-16T08:38:30;13.03;;;7.33;;
7833;SDS011;3962;42.696;23.354;2022-10-16T08:40:58;10.00;;;7.07;;
7833;SDS011;3962;42.696;23.354;2022-10-16T08:43:43;10.43;;;6.20;;
7833;SDS011;3962;42.696;23.354;2022-10-16T08:46:26;10.30;;;6.40;;
7833;SDS011;3962;42.696;23.354;2022-10-16T08:49:05;7.67;;;4.93;;
7833;SDS011;3962;42.696;23.354;2022-10-16T08:51:36;6.63;;;5.33;;
7833;SDS011;3962;42.696;23.354;2022-10-16T08:54:04;12.67;;;7.20;;
7833;SDS011;3962;42.696;23.354;2022-10-16T08:56:32;7.03;;;5.40;;
7833;SDS011;3962;42.696;23.354;2022-10-16T08:58:59;6.93;;;5.20;;
7833;SDS011;3962;42.696;23.354;2022-10-16T09:01:32;5.80;;;4.50;;
7833;SDS011;3962;42.696;23.354;2022-10-16T09:07:08;10.67;;;4.60;;
7833;SDS011;3962;42.696;23.354;2022-10-16T09:09:45;6.57;;;4.60;;
7833;SDS011;3962;42.696;23.354;2022-10-16T09:12:23;5.60;;;4.00;;
7833;SDS011;3962;42.696;23.354;2022-10-16T09:15:02;4.93;;;3.60;;
7833;SDS011;3962;42.696;23.354;2022-10-16T09:17:44;6.73;;;4.43;;
7833;SDS011;3962;42.696;23.354;2022-10-16T09:20:20;4.07;;;3.67;;
7833;SDS011;3962;42.696;23.354;2022-10-16T09:22:55;5.17;;;3.60;;
7833;SDS011;3962;42.696;23.354;2022-10-16T09:25:36;4.17;;;3.37;;
7833;SDS011;3962;42.696;23.354;2022-10-16T09:28:07;5.53;;;3.50;;
7833;SDS011;3962;42.696;23.354;2022-10-16T09:30:34;4.60;;;3.67;;
7833;SDS011;3962;42.696;23.354;2022-10-16T09:33:03;4.50;;;3.70;;
7833;SDS011;3962;42.696;23.354;2022-10-16T09:35:32;6.87;;;4.03;;
7833;SDS011;3962;42.696;23.354;2022-10-16T09:38:02;4.53;;;3.87;;
7833;SDS011;3962;42.696;23.354;2022-10-16T09:40:30;5.90;;;3.90;;
7833;SDS011;3962;42.696;23.354;2022-10-16T09:43:01;6.07;;;4.10;;
7833;SDS011;3962;42.696;23.354;2022-10-16T09:45:32;4.40;;;3.40;;
7833;SDS011;3962;42.696;23.354;2022-10-16T09:48:01;4.27;;;3.13;;
7833;SDS011;3962;42.696;23.354;2022-10-16T09:50:37;6.13;;;4.50;;
7833;SDS011;3962;42.696;23.354;2022-10-16T09:53:05;5.77;;;3.60;;
7833;SDS011;3962;42.696;23.354;2022-10-16T09:55:47;7.00;;;4.17;;
7833;SDS011;3962;42.696;23.354;2022-10-16T09:58:15;5.30;;;4.00;;
7833;SDS011;3962;42.696;23.354;2022-10-16T10:00:42;4.77;;;4.10;;
7833;SDS011;3962;42.696;23.354;2022-10-16T10:03:21;5.10;;;3.53;;
7833;SDS011;3962;42.696;23.354;2022-10-16T10:06:06;7.47;;;4.50;;
7833;SDS011;3962;42.696;23.354;2022-10-16T10:08:52;6.97;;;4.00;;
7833;SDS011;3962;42.696;23.354;2022-10-16T10:11:44;5.80;;;3.90;;
7833;SDS011;3962;42.696;23.354;2022-10-16T10:14:18;6.57;;;4.43;;
7833;SDS011;3962;42.696;23.354;2022-10-16T10:16:48;5.17;;;3.90;;
7833;SDS011;3962;42.696;23.354;2022-10-16T10:19:16;4.30;;;3.77;;
7833;SDS011;3962;42.696;23.354;2022-10-16T10:21:45;5.83;;;4.10;;
7833;SDS011;3962;42.696;23.354;2022-10-16T10:24:13;4.97;;;3.70;;
7833;SDS011;3962;42.696;23.354;2022-10-16T10:26:47;5.93;;;4.03;;
7833;SDS011;3962;42.696;23.354;2022-10-16T10:29:35;6.23;;;4.53;;
7833;SDS011;3962;42.696;23.354;2022-10-16T10:32:15;6.67;;;4.07;;
7833;SDS011;3962;42.696;23.354;2022-10-16T10:34:53;6.27;;;4.30;;
7833;SDS011;3962;42.696;23.354;2022-10-16T10:37:40;6.57;;;4.50;;
7833;SDS011;3962;42.696;23.354;2022-10-16T10:40:22;4.23;;;3.30;;
7833;SDS011;3962;42.696;23.354;2022-10-16T10:42:57;6.27;;;3.90;;
7833;SDS011;3962;42.696;23.354;2022-10-16T10:45:34;5.30;;;3.70;;
7833;SDS011;3962;42.696;23.354;2022-10-16T10:48:23;8.83;;;4.63;;
7833;SDS011;3962;42.696;23.354;2022-10-16T10:51:10;7.33;;;4.40;;
7833;SDS011;3962;42.696;23.354;2022-10-16T10:53:49;5.87;;;3.97;;
7833;SDS011;3962;42.696;23.354;2022-10-16T10:56:25;7.47;;;4.27;;
7833;SDS011;3962;42.696;23.354;2022-10-16T10:59:15;3.97;;;3.57;;
7833;SDS011;3962;42.696;23.354;2022-10-16T11:01:54;5.50;;;3.70;;
7833;SDS011;3962;42.696;23.354;2022-10-16T11:04:32;7.03;;;4.20;;
7833;SDS011;3962;42.696;23.354;2022-10-16T11:07:21;4.80;;;3.97;;
7833;SDS011;3962;42.696;23.354;2022-10-16T11:09:54;6.77;;;4.23;;
7833;SDS011;3962;42.696;23.354;2022-10-16T11:12:24;5.97;;;3.80;;
7833;SDS011;3962;42.696;23.354;2022-10-16T11:14:54;5.67;;;4.20;;
7833;SDS011;3962;42.696;23.354;2022-10-16T11:17:25;6.03;;;3.60;;
7833;SDS011;3962;42.696;23.354;2022-10-16T11:19:57;6.07;;;3.87;;
7833;SDS011;3962;42.696;23.354;2022-10-16T11:22:30;7.23;;;4.07;;
7833;SDS011;3962;42.696;23.354;2022-10-16T11:25:04;6.37;;;4.10;;
7833;SDS011;3962;42.696;23.354;2022-10-16T11:27:40;4.60;;;3.83;;
7833;SDS011;3962;42.696;23.354;2022-10-16T11:30:13;6.53;;;4.10;;
7833;SDS011;3962;42.696;23.354;2022-10-16T11:32:48;6.33;;;3.67;;
7833;SDS011;3962;42.696;23.354;2022-10-16T11:35:22;4.37;;;3.83;;
7833;SDS011;3962;42.696;23.354;2022-10-16T11:37:54;7.67;;;4.40;;
7833;SDS011;3962;42.696;23.354;2022-10-16T11:40:27;4.20;;;3.77;;
7833;SDS011;3962;42.696;23.354;2022-10-16T11:43:00;7.43;;;3.73;;
7833;SDS011;3962;42.696;23.354;2022-10-16T11:45:36;5.83;;;4.37;;
7833;SDS011;3962;42.696;23.354;2022-10-16T11:48:13;5.20;;;3.80;;
7833;SDS011;3962;42.696;23.354;2022-10-16T11:50:48;6.07;;;3.60;;
7833;SDS011;3962;42.696;23.354;2022-10-16T11:53:21;4.63;;;3.03;;
7833;SDS011;3962;42.696;23.354;2022-10-16T11:55:55;3.87;;;3.07;;
7833;SDS011;3962;42.696;23.354;2022-10-16T11:58:24;6.00;;;4.03;;
7833;SDS011;3962;42.696;23.354;2022-10-16T12:00:58;5.10;;;3.87;;
7833;SDS011;3962;42.696;23.354;2022-10-16T12:03:39;4.07;;;3.67;;
7833;SDS011;3962;42.696;23.354;2022-10-16T12:06:22;4.30;;;3.70;;
7833;SDS011;3962;42.696;23.354;2022-10-16T12:08:58;6.00;;;4.23;;
7833;SDS011;3962;42.696;23.354;2022-10-16T12:11:35;6.83;;;3.70;;
7833;SDS011;3962;42.696;23.354;2022-10-16T12:14:05;5.50;;;3.80;;
7833;SDS011;3962;42.696;23.354;2022-10-16T12:16:34;9.60;;;3.80;;
7833;SDS011;3962;42.696;23.354;2022-10-16T12:19:11;5.67;;;3.80;;
7833;SDS011;3962;42.696;23.354;2022-10-16T12:21:38;5.47;;;4.00;;
7833;SDS011;3962;42.696;23.354;2022-10-16T12:24:06;5.73;;;3.77;;
7833;SDS011;3962;42.696;23.354;2022-10-16T12:26:47;6.47;;;3.80;;
7833;SDS011;3962;42.696;23.354;2022-10-16T12:29:21;5.50;;;4.10;;
7833;SDS011;3962;42.696;23.354;2022-10-16T12:31:59;4.43;;;3.17;;
7833;SDS011;3962;42.696;23.354;2022-10-16T12:34:27;6.10;;;3.87;;
7833;SDS011;3962;42.696;23.354;2022-10-16T12:37:09;4.10;;;3.70;;
7833;SDS011;3962;42.696;23.354;2022-10-16T12:39:39;5.50;;;4.00;;
7833;SDS011;3962;42.696;23.354;2022-10-16T12:42:19;6.87;;;3.90;;
7833;SDS011;3962;42.696;23.354;2022-10-16T12:44:47;4.77;;;3.47;;
7833;SDS011;3962;42.696;23.354;2022-10-16T12:47:19;10.80;;;4.00;;
7833;SDS011;3962;42.696;23.354;2022-10-16T12:49:48;5.17;;;3.80;;
7833;SDS011;3962;42.696;23.354;2022-10-16T12:52:24;5.00;;;3.20;;
7833;SDS011;3962;42.696;23.354;2022-10-16T12:54:55;3.63;;;3.20;;
7833;SDS011;3962;42.696;23.354;2022-10-16T12:57:32;4.13;;;3.43;;
7833;SDS011;3962;42.696;23.354;2022-10-16T13:00:10;5.70;;;3.53;;
7833;SDS011;3962;42.696;23.354;2022-10-16T13:06:04;5.57;;;2.87;;
7833;SDS011;3962;42.696;23.354;2022-10-16T13:08:43;4.93;;;3.00;;
7833;SDS011;3962;42.696;23.354;2022-10-16T13:11:22;4.30;;;2.90;;
7833;SDS011;3962;42.696;23.354;2022-10-16T13:14:01;4.90;;;3.57;;
7833;SDS011;3962;42.696;23.354;2022-10-16T13:16:45;4.67;;;3.73;;
7833;SDS011;3962;42.696;23.354;2022-10-16T13:19:22;4.37;;;3.20;;
7833;SDS011;3962;42.696;23.354;2022-10-16T13:21:57;4.00;;;3.10;;
7833;SDS011;3962;42.696;23.354;2022-10-16T13:24:39;5.63;;;3.30;;
7833;SDS011;3962;42.696;23.354;2022-10-16T13:27:17;6.10;;;3.50;;
7833;SDS011;3962;42.696;23.354;2022-10-16T13:29:53;5.13;;;3.10;;
7833;SDS011;3962;42.696;23.354;2022-10-16T13:32:26;4.93;;;2.83;;
7833;SDS011;3962;42.696;23.354;2022-10-16T13:34:54;5.20;;;3.40;;
7833;SDS011;3962;42.696;23.354;2022-10-16T13:37:21;4.80;;;3.00;;
7833;SDS011;3962;42.696;23.354;2022-10-16T13:39:49;5.53;;;2.83;;
7833;SDS011;3962;42.696;23.354;2022-10-16T13:42:18;2.57;;;2.37;;
7833;SDS011;3962;42.696;23.354;2022-10-16T13:44:50;3.87;;;2.60;;
7833;SDS011;3962;42.696;23.354;2022-10-16T13:47:20;4.37;;;2.40;;
7833;SDS011;3962;42.696;23.354;2022-10-16T13:49:58;4.43;;;2.73;;
7833;SDS011;3962;42.696;23.354;2022-10-16T13:52:25;3.43;;;2.40;;
7833;SDS011;3962;42.696;23.354;2022-10-16T13:54:52;3.53;;;2.93;;
7833;SDS011;3962;42.696;23.354;2022-10-16T13:57:21;3.30;;;2.20;;
7833;SDS011;3962;42.696;23.354;2022-10-16T13:59:49;3.27;;;2.63;;
7833;SDS011;3962;42.696;23.354;2022-10-16T14:02:19;4.23;;;2.70;;
7833;SDS011;3962;42.696;23.354;2022-10-16T14:04:51;5.73;;;3.30;;
7833;SDS011;3962;42.696;23.354;2022-10-16T14:07:20;4.13;;;3.23;;
7833;SDS011;3962;42.696;23.354;2022-10-16T14:09:51;4.83;;;3.07;;
7833;SDS011;3962;42.696;23.354;2022-10-16T14:12:20;4.43;;;3.00;;
7833;SDS011;3962;42.696;23.354;2022-10-16T14:14:50;4.13;;;3.10;;
7833;SDS011;3962;42.696;23.354;2022-10-16T14:17:22;3.10;;;2.77;;
7833;SDS011;3962;42.696;23.354;2022-10-16T14:19:51;3.83;;;2.90;;
7833;SDS011;3962;42.696;23.354;2022-10-16T14:22:26;2.83;;;2.40;;
7833;SDS011;3962;42.696;23.354;2022-10-16T14:24:56;3.77;;;2.60;;
7833;SDS011;3962;42.696;23.354;2022-10-16T14:27:28;3.43;;;3.00;;
7833;SDS011;3962;42.696;23.354;2022-10-16T14:30:14;3.90;;;2.50;;
7833;SDS011;3962;42.696;23.354;2022-10-16T14:32:54;4.07;;;2.70;;
7833;SDS011;3962;42.696;23.354;2022-10-16T14:35:23;5.30;;;2.90;;
7833;SDS011;3962;42.696;23.354;2022-10-16T14:37:52;7.43;;;3.57;;
7833;SDS011;3962;42.696;23.354;2022-10-16T14:40:19;3.13;;;2.70;;
7833;SDS011;3962;42.696;23.354;2022-10-16T14:42:48;5.27;;;3.10;;
7833;SDS011;3962;42.696;23.354;2022-10-16T14:45:17;3.73;;;2.97;;
7833;SDS011;3962;42.696;23.354;2022-10-16T14:47:47;4.00;;;2.90;;
7833;SDS011;3962;42.696;23.354;2022-10-16T14:50:19;6.70;;;3.10;;
7833;SDS011;3962;42.696;23.354;2022-10-16T14:52:46;5.90;;;3.20;;
7833;SDS011;3962;42.696;23.354;2022-10-16T14:55:13;6.70;;;3.50;;
7833;SDS011;3962;42.696;23.354;2022-10-16T14:57:40;4.97;;;2.87;;
7833;SDS011;3962;42.696;23.354;2022-10-16T15:00:10;3.73;;;2.90;;
7833;SDS011;3962;42.696;23.354;2022-10-16T15:02:42;3.83;;;3.30;;
7833;SDS011;3962;42.696;23.354;2022-10-16T15:05:14;4.90;;;2.97;;
7833;SDS011;3962;42.696;23.354;2022-10-16T15:07:45;3.97;;;2.87;;
7833;SDS011;3962;42.696;23.354;2022-10-16T15:10:12;11.33;;;3.90;;
7833;SDS011;3962;42.696;23.354;2022-10-16T15:12:40;7.00;;;3.37;;
7833;SDS011;3962;42.696;23.354;2022-10-16T15:15:15;4.87;;;3.27;;